sensor_id;sensor_type;location;lat;lon;timestamp;P1;durP1;ratioP1;P2;durP2;ratioP2
52686;SDS011;38584;49.426;8.396;2022-12-07T00:03:40;16.43;;;8.87;;
52686;SDS011;38584;49.426;8.396;2022-12-07T00:06:07;17.70;;;9.02;;
52686;SDS011;38584;49.426;8.396;2022-12-07T00:08:34;16.10;;;8.23;;
52686;SDS011;38584;49.426;8.396;2022-12-07T00:11:00;17.70;;;8.23;;
52686;SDS011;38584;49.426;8.396;2022-12-07T00:13:30;17.73;;;8.52;;
52686;SDS011;38584;49.426;8.396;2022-12-07T00:15:59;17.13;;;8.95;;
52686;SDS011;38584;49.426;8.396;2022-12-07T00:18:26;16.98;;;8.68;;
52686;SDS011;38584;49.426;8.396;2022-12-07T00:20:51;18.67;;;8.68;;
52686;SDS011;38584;49.426;8.396;2022-12-07T00:23:16;17.67;;;9.35;;
52686;SDS011;38584;49.426;8.396;2022-12-07T00:25:42;17.20;;;8.50;;
52686;SDS011;38584;49.426;8.396;2022-12-07T00:28:07;18.20;;;8.32;;
52686;SDS011;38584;49.426;8.396;2022-12-07T00:30:34;17.52;;;8.98;;
52686;SDS011;38584;49.426;8.396;2022-12-07T00:32:59;17.05;;;8.48;;
52686;SDS011;38584;49.426;8.396;2022-12-07T00:35:25;18.42;;;8.85;;
52686;SDS011;38584;49.426;8.396;2022-12-07T00:37:50;17.50;;;9.35;;
52686;SDS011;38584;49.426;8.396;2022-12-07T00:40:15;16.75;;;8.13;;
52686;SDS011;38584;49.426;8.396;2022-12-07T00:42:40;18.98;;;9.18;;
52686;SDS011;38584;49.426;8.396;2022-12-07T00:45:06;17.50;;;9.07;;
52686;SDS011;38584;49.426;8.396;2022-12-07T00:47:32;19.15;;;9.20;;
52686;SDS011;38584;49.426;8.396;2022-12-07T00:49:57;18.02;;;8.38;;
52686;SDS011;38584;49.426;8.396;2022-12-07T00:52:23;17.15;;;8.80;;
52686;SDS011;38584;49.426;8.396;2022-12-07T00:54:48;16.90;;;8.65;;
52686;SDS011;38584;49.426;8.396;2022-12-07T00:57:14;19.65;;;8.98;;
52686;SDS011;38584;49.426;8.396;2022-12-07T00:59:39;17.40;;;8.77;;
52686;SDS011;38584;49.426;8.396;2022-12-07T01:02:04;18.88;;;9.15;;
52686;SDS011;38584;49.426;8.396;2022-12-07T01:04:30;15.30;;;7.88;;
52686;SDS011;38584;49.426;8.396;2022-12-07T01:06:55;16.73;;;8.15;;
52686;SDS011;38584;49.426;8.396;2022-12-07T01:09:20;16.58;;;8.18;;
52686;SDS011;38584;49.426;8.396;2022-12-07T01:11:45;16.40;;;8.02;;
52686;SDS011;38584;49.426;8.396;2022-12-07T01:14:11;15.07;;;7.85;;
52686;SDS011;38584;49.426;8.396;2022-12-07T01:16:36;17.40;;;8.45;;
52686;SDS011;38584;49.426;8.396;2022-12-07T01:19:03;15.00;;;7.55;;
52686;SDS011;38584;49.426;8.396;2022-12-07T01:21:30;17.90;;;8.05;;
52686;SDS011;38584;49.426;8.396;2022-12-07T01:24:00;17.63;;;7.93;;
52686;SDS011;38584;49.426;8.396;2022-12-07T01:26:26;17.50;;;8.15;;
52686;SDS011;38584;49.426;8.396;2022-12-07T01:28:52;20.08;;;9.05;;
52686;SDS011;38584;49.426;8.396;2022-12-07T01:31:23;17.42;;;7.75;;
52686;SDS011;38584;49.426;8.396;2022-12-07T01:33:50;16.05;;;8.10;;
52686;SDS011;38584;49.426;8.396;2022-12-07T01:36:21;17.23;;;8.02;;
52686;SDS011;38584;49.426;8.396;2022-12-07T01:38:49;17.88;;;7.18;;
52686;SDS011;38584;49.426;8.396;2022-12-07T01:41:18;16.58;;;7.57;;
52686;SDS011;38584;49.426;8.396;2022-12-07T01:46:31;17.73;;;7.85;;
52686;SDS011;38584;49.426;8.396;2022-12-07T01:48:56;18.83;;;8.05;;
52686;SDS011;38584;49.426;8.396;2022-12-07T01:51:21;21.00;;;8.63;;
52686;SDS011;38584;49.426;8.396;2022-12-07T01:53:47;18.77;;;8.57;;
52686;SDS011;38584;49.426;8.396;2022-12-07T01:56:14;18.98;;;8.10;;
52686;SDS011;38584;49.426;8.396;2022-12-07T01:58:42;19.08;;;8.35;;
52686;SDS011;38584;49.426;8.396;2022-12-07T02:01:08;18.70;;;8.18;;
52686;SDS011;38584;49.426;8.396;2022-12-07T02:03:34;16.23;;;7.93;;
52686;SDS011;38584;49.426;8.396;2022-12-07T02:06:03;15.98;;;7.78;;
52686;SDS011;38584;49.426;8.396;2022-12-07T02:08:29;17.15;;;7.82;;
52686;SDS011;38584;49.426;8.396;2022-12-07T02:10:55;17.48;;;7.82;;
52686;SDS011;38584;49.426;8.396;2022-12-07T02:13:27;17.65;;;7.43;;
52686;SDS011;38584;49.426;8.396;2022-12-07T02:24:24;15.75;;;7.70;;
52686;SDS011;38584;49.426;8.396;2022-12-07T02:27:07;16.20;;;7.68;;
52686;SDS011;38584;49.426;8.396;2022-12-07T02:30:00;17.63;;;8.55;;
52686;SDS011;38584;49.426;8.396;2022-12-07T02:35:22;17.23;;;8.05;;
52686;SDS011;38584;49.426;8.396;2022-12-07T02:40:39;17.17;;;7.90;;
52686;SDS011;38584;49.426;8.396;2022-12-07T02:43:17;17.55;;;7.82;;
52686;SDS011;38584;49.426;8.396;2022-12-07T02:45:45;17.35;;;7.85;;
52686;SDS011;38584;49.426;8.396;2022-12-07T02:48:11;23.30;;;8.88;;
52686;SDS011;38584;49.426;8.396;2022-12-07T02:50:39;17.00;;;8.13;;
52686;SDS011;38584;49.426;8.396;2022-12-07T02:53:04;20.75;;;8.55;;
52686;SDS011;38584;49.426;8.396;2022-12-07T02:55:34;15.25;;;6.78;;
52686;SDS011;38584;49.426;8.396;2022-12-07T02:58:37;17.67;;;8.30;;
52686;SDS011;38584;49.426;8.396;2022-12-07T03:04:45;15.63;;;7.55;;
52686;SDS011;38584;49.426;8.396;2022-12-07T03:06:52;15.77;;;7.65;;
52686;SDS011;38584;49.426;8.396;2022-12-07T03:09:23;16.15;;;7.85;;
52686;SDS011;38584;49.426;8.396;2022-12-07T03:12:07;16.02;;;8.10;;
52686;SDS011;38584;49.426;8.396;2022-12-07T03:14:38;16.92;;;7.57;;
52686;SDS011;38584;49.426;8.396;2022-12-07T03:17:13;14.77;;;7.32;;
52686;SDS011;38584;49.426;8.396;2022-12-07T03:19:42;16.20;;;7.93;;
52686;SDS011;38584;49.426;8.396;2022-12-07T03:22:09;17.33;;;7.57;;
52686;SDS011;38584;49.426;8.396;2022-12-07T03:24:47;16.02;;;7.20;;
52686;SDS011;38584;49.426;8.396;2022-12-07T03:27:16;17.77;;;7.75;;
52686;SDS011;38584;49.426;8.396;2022-12-07T03:29:46;19.15;;;8.48;;
52686;SDS011;38584;49.426;8.396;2022-12-07T03:32:16;22.77;;;9.70;;
52686;SDS011;38584;49.426;8.396;2022-12-07T03:34:47;20.40;;;8.88;;
52686;SDS011;38584;49.426;8.396;2022-12-07T03:37:21;17.33;;;7.95;;
52686;SDS011;38584;49.426;8.396;2022-12-07T03:39:56;18.40;;;7.72;;
52686;SDS011;38584;49.426;8.396;2022-12-07T03:42:24;15.73;;;7.75;;
52686;SDS011;38584;49.426;8.396;2022-12-07T03:44:50;17.33;;;7.75;;
52686;SDS011;38584;49.426;8.396;2022-12-07T03:47:26;17.23;;;7.55;;
52686;SDS011;38584;49.426;8.396;2022-12-07T03:50:01;15.18;;;6.35;;
52686;SDS011;38584;49.426;8.396;2022-12-07T03:52:32;16.63;;;7.75;;
52686;SDS011;38584;49.426;8.396;2022-12-07T03:55:08;14.68;;;6.60;;
52686;SDS011;38584;49.426;8.396;2022-12-07T03:57:39;17.10;;;7.55;;
52686;SDS011;38584;49.426;8.396;2022-12-07T04:00:06;15.32;;;6.63;;
52686;SDS011;38584;49.426;8.396;2022-12-07T04:02:32;15.02;;;6.47;;
52686;SDS011;38584;49.426;8.396;2022-12-07T04:04:58;15.70;;;6.72;;
52686;SDS011;38584;49.426;8.396;2022-12-07T04:07:24;15.05;;;7.28;;
52686;SDS011;38584;49.426;8.396;2022-12-07T04:09:50;15.05;;;7.07;;
52686;SDS011;38584;49.426;8.396;2022-12-07T04:12:15;15.55;;;6.90;;
52686;SDS011;38584;49.426;8.396;2022-12-07T04:14:40;16.35;;;7.70;;
52686;SDS011;38584;49.426;8.396;2022-12-07T04:17:06;16.67;;;7.18;;
52686;SDS011;38584;49.426;8.396;2022-12-07T04:19:32;14.75;;;7.35;;
52686;SDS011;38584;49.426;8.396;2022-12-07T04:21:59;16.25;;;7.85;;
52686;SDS011;38584;49.426;8.396;2022-12-07T04:24:25;15.13;;;7.30;;
52686;SDS011;38584;49.426;8.396;2022-12-07T04:26:51;14.00;;;6.97;;
52686;SDS011;38584;49.426;8.396;2022-12-07T04:29:16;15.85;;;8.02;;
52686;SDS011;38584;49.426;8.396;2022-12-07T04:31:42;15.02;;;7.10;;
52686;SDS011;38584;49.426;8.396;2022-12-07T04:34:08;15.32;;;7.63;;
52686;SDS011;38584;49.426;8.396;2022-12-07T04:36:33;17.92;;;8.18;;
52686;SDS011;38584;49.426;8.396;2022-12-07T04:38:59;15.82;;;7.68;;
52686;SDS011;38584;49.426;8.396;2022-12-07T04:41:25;16.75;;;7.07;;
52686;SDS011;38584;49.426;8.396;2022-12-07T04:43:54;15.00;;;7.03;;
52686;SDS011;38584;49.426;8.396;2022-12-07T04:46:20;15.35;;;7.63;;
52686;SDS011;38584;49.426;8.396;2022-12-07T04:48:46;13.90;;;7.03;;
52686;SDS011;38584;49.426;8.396;2022-12-07T04:51:11;14.32;;;7.43;;
52686;SDS011;38584;49.426;8.396;2022-12-07T04:53:37;15.52;;;6.72;;
52686;SDS011;38584;49.426;8.396;2022-12-07T04:56:02;15.00;;;7.28;;
52686;SDS011;38584;49.426;8.396;2022-12-07T04:58:27;15.50;;;7.25;;
52686;SDS011;38584;49.426;8.396;2022-12-07T05:00:56;16.45;;;7.43;;
52686;SDS011;38584;49.426;8.396;2022-12-07T05:03:21;16.67;;;7.85;;
52686;SDS011;38584;49.426;8.396;2022-12-07T05:05:46;14.98;;;6.75;;
52686;SDS011;38584;49.426;8.396;2022-12-07T05:08:12;15.45;;;7.68;;
52686;SDS011;38584;49.426;8.396;2022-12-07T05:10:37;16.45;;;8.27;;
52686;SDS011;38584;49.426;8.396;2022-12-07T05:13:02;17.90;;;8.38;;
52686;SDS011;38584;49.426;8.396;2022-12-07T05:15:28;15.75;;;7.57;;
52686;SDS011;38584;49.426;8.396;2022-12-07T05:17:53;16.92;;;8.27;;
52686;SDS011;38584;49.426;8.396;2022-12-07T05:20:18;18.90;;;7.80;;
52686;SDS011;38584;49.426;8.396;2022-12-07T05:22:44;15.23;;;7.50;;
52686;SDS011;38584;49.426;8.396;2022-12-07T05:25:09;18.30;;;8.50;;
52686;SDS011;38584;49.426;8.396;2022-12-07T05:27:34;17.35;;;7.45;;
52686;SDS011;38584;49.426;8.396;2022-12-07T05:30:00;16.15;;;8.13;;
52686;SDS011;38584;49.426;8.396;2022-12-07T05:32:25;16.45;;;8.32;;
52686;SDS011;38584;49.426;8.396;2022-12-07T05:34:50;17.25;;;7.97;;
52686;SDS011;38584;49.426;8.396;2022-12-07T05:37:16;15.90;;;8.10;;
52686;SDS011;38584;49.426;8.396;2022-12-07T05:39:41;17.92;;;8.13;;
52686;SDS011;38584;49.426;8.396;2022-12-07T05:42:08;17.20;;;8.93;;
52686;SDS011;38584;49.426;8.396;2022-12-07T05:44:38;22.35;;;8.52;;
52686;SDS011;38584;49.426;8.396;2022-12-07T05:47:04;18.27;;;8.68;;
52686;SDS011;38584;49.426;8.396;2022-12-07T05:49:29;18.15;;;8.18;;
52686;SDS011;38584;49.426;8.396;2022-12-07T05:51:55;17.85;;;8.68;;
52686;SDS011;38584;49.426;8.396;2022-12-07T05:54:20;17.75;;;7.80;;
52686;SDS011;38584;49.426;8.396;2022-12-07T05:56:45;16.98;;;8.45;;
52686;SDS011;38584;49.426;8.396;2022-12-07T05:59:10;16.42;;;7.65;;
52686;SDS011;38584;49.426;8.396;2022-12-07T06:02:04;16.10;;;7.93;;
52686;SDS011;38584;49.426;8.396;2022-12-07T06:04:33;17.13;;;7.97;;
52686;SDS011;38584;49.426;8.396;2022-12-07T06:06:59;16.55;;;8.57;;
52686;SDS011;38584;49.426;8.396;2022-12-07T06:09:26;16.35;;;8.48;;
52686;SDS011;38584;49.426;8.396;2022-12-07T06:11:52;17.92;;;9.30;;
52686;SDS011;38584;49.426;8.396;2022-12-07T06:14:36;17.10;;;8.40;;
52686;SDS011;38584;49.426;8.396;2022-12-07T06:17:01;18.33;;;9.23;;
52686;SDS011;38584;49.426;8.396;2022-12-07T06:19:27;17.63;;;9.80;;
52686;SDS011;38584;49.426;8.396;2022-12-07T06:21:52;18.92;;;10.18;;
52686;SDS011;38584;49.426;8.396;2022-12-07T06:24:18;19.13;;;10.48;;
52686;SDS011;38584;49.426;8.396;2022-12-07T06:26:43;19.83;;;10.98;;
52686;SDS011;38584;49.426;8.396;2022-12-07T06:29:09;21.88;;;10.75;;
52686;SDS011;38584;49.426;8.396;2022-12-07T06:31:36;20.00;;;9.93;;
52686;SDS011;38584;49.426;8.396;2022-12-07T06:34:02;20.65;;;10.32;;
52686;SDS011;38584;49.426;8.396;2022-12-07T06:36:29;21.15;;;10.05;;
52686;SDS011;38584;49.426;8.396;2022-12-07T06:38:55;18.20;;;9.70;;
52686;SDS011;38584;49.426;8.396;2022-12-07T06:41:21;20.73;;;11.30;;
52686;SDS011;38584;49.426;8.396;2022-12-07T06:43:46;18.05;;;10.68;;
52686;SDS011;38584;49.426;8.396;2022-12-07T06:46:12;20.35;;;11.40;;
52686;SDS011;38584;49.426;8.396;2022-12-07T06:48:39;21.08;;;12.05;;
52686;SDS011;38584;49.426;8.396;2022-12-07T06:51:04;21.25;;;11.20;;
52686;SDS011;38584;49.426;8.396;2022-12-07T06:53:30;20.90;;;11.35;;
52686;SDS011;38584;49.426;8.396;2022-12-07T06:55:55;20.13;;;11.13;;
52686;SDS011;38584;49.426;8.396;2022-12-07T06:58:20;21.10;;;10.70;;
52686;SDS011;38584;49.426;8.396;2022-12-07T07:00:47;19.08;;;10.50;;
52686;SDS011;38584;49.426;8.396;2022-12-07T07:03:13;22.08;;;10.85;;
52686;SDS011;38584;49.426;8.396;2022-12-07T07:05:38;22.20;;;10.93;;
52686;SDS011;38584;49.426;8.396;2022-12-07T07:08:04;22.27;;;10.38;;
52686;SDS011;38584;49.426;8.396;2022-12-07T07:10:29;19.10;;;9.75;;
52686;SDS011;38584;49.426;8.396;2022-12-07T07:12:55;20.05;;;10.70;;
52686;SDS011;38584;49.426;8.396;2022-12-07T07:15:20;21.98;;;10.80;;
52686;SDS011;38584;49.426;8.396;2022-12-07T07:17:45;24.80;;;14.32;;
52686;SDS011;38584;49.426;8.396;2022-12-07T07:20:11;21.23;;;11.65;;
52686;SDS011;38584;49.426;8.396;2022-12-07T07:22:37;22.48;;;10.45;;
52686;SDS011;38584;49.426;8.396;2022-12-07T07:25:02;19.90;;;9.75;;
52686;SDS011;38584;49.426;8.396;2022-12-07T07:27:28;18.45;;;9.50;;
52686;SDS011;38584;49.426;8.396;2022-12-07T07:29:53;17.92;;;9.43;;
52686;SDS011;38584;49.426;8.396;2022-12-07T07:32:18;20.63;;;9.43;;
52686;SDS011;38584;49.426;8.396;2022-12-07T07:34:44;19.02;;;10.25;;
52686;SDS011;38584;49.426;8.396;2022-12-07T07:37:09;22.30;;;10.15;;
52686;SDS011;38584;49.426;8.396;2022-12-07T07:39:37;19.63;;;9.93;;
52686;SDS011;38584;49.426;8.396;2022-12-07T07:42:03;18.20;;;9.40;;
52686;SDS011;38584;49.426;8.396;2022-12-07T07:44:28;17.33;;;9.45;;
52686;SDS011;38584;49.426;8.396;2022-12-07T07:46:53;21.92;;;10.02;;
52686;SDS011;38584;49.426;8.396;2022-12-07T07:49:19;18.40;;;9.70;;
52686;SDS011;38584;49.426;8.396;2022-12-07T07:51:44;19.13;;;9.00;;
52686;SDS011;38584;49.426;8.396;2022-12-07T07:54:09;17.15;;;9.30;;
52686;SDS011;38584;49.426;8.396;2022-12-07T07:56:35;19.63;;;9.30;;
52686;SDS011;38584;49.426;8.396;2022-12-07T07:59:00;16.85;;;9.50;;
52686;SDS011;38584;49.426;8.396;2022-12-07T08:01:25;18.17;;;9.30;;
52686;SDS011;38584;49.426;8.396;2022-12-07T08:03:50;19.40;;;9.77;;
52686;SDS011;38584;49.426;8.396;2022-12-07T08:06:16;19.77;;;9.40;;
52686;SDS011;38584;49.426;8.396;2022-12-07T08:08:41;16.40;;;9.00;;
52686;SDS011;38584;49.426;8.396;2022-12-07T08:11:07;24.00;;;10.20;;
52686;SDS011;38584;49.426;8.396;2022-12-07T08:13:33;18.02;;;10.13;;
52686;SDS011;38584;49.426;8.396;2022-12-07T08:15:59;20.00;;;10.73;;
52686;SDS011;38584;49.426;8.396;2022-12-07T08:18:28;18.38;;;9.98;;
52686;SDS011;38584;49.426;8.396;2022-12-07T08:20:58;18.92;;;9.50;;
52686;SDS011;38584;49.426;8.396;2022-12-07T08:46:58;20.02;;;9.60;;
52686;SDS011;38584;49.426;8.396;2022-12-07T08:49:36;23.92;;;9.93;;
52686;SDS011;38584;49.426;8.396;2022-12-07T08:52:05;17.48;;;9.75;;
52686;SDS011;38584;49.426;8.396;2022-12-07T08:54:31;16.58;;;8.65;;
52686;SDS011;38584;49.426;8.396;2022-12-07T08:56:59;21.92;;;10.07;;
52686;SDS011;38584;49.426;8.396;2022-12-07T08:59:24;17.45;;;8.77;;
52686;SDS011;38584;49.426;8.396;2022-12-07T09:01:50;18.50;;;9.65;;
52686;SDS011;38584;49.426;8.396;2022-12-07T09:04:15;23.48;;;10.57;;
52686;SDS011;38584;49.426;8.396;2022-12-07T09:06:41;23.30;;;10.00;;
52686;SDS011;38584;49.426;8.396;2022-12-07T09:09:07;21.90;;;10.35;;
52686;SDS011;38584;49.426;8.396;2022-12-07T09:11:33;18.35;;;9.20;;
52686;SDS011;38584;49.426;8.396;2022-12-07T09:13:58;19.23;;;10.55;;
52686;SDS011;38584;49.426;8.396;2022-12-07T09:16:24;19.77;;;10.68;;
52686;SDS011;38584;49.426;8.396;2022-12-07T09:18:49;18.50;;;9.88;;
52686;SDS011;38584;49.426;8.396;2022-12-07T09:21:14;16.98;;;9.27;;
52686;SDS011;38584;49.426;8.396;2022-12-07T09:23:41;18.17;;;10.10;;
52686;SDS011;38584;49.426;8.396;2022-12-07T09:26:07;20.27;;;10.27;;
52686;SDS011;38584;49.426;8.396;2022-12-07T09:28:33;21.63;;;10.40;;
52686;SDS011;38584;49.426;8.396;2022-12-07T09:30:58;19.67;;;10.18;;
52686;SDS011;38584;49.426;8.396;2022-12-07T09:33:23;25.23;;;11.77;;
52686;SDS011;38584;49.426;8.396;2022-12-07T09:35:49;20.02;;;10.90;;
52686;SDS011;38584;49.426;8.396;2022-12-07T09:38:16;19.23;;;10.35;;
52686;SDS011;38584;49.426;8.396;2022-12-07T09:40:42;20.10;;;10.60;;
52686;SDS011;38584;49.426;8.396;2022-12-07T09:43:22;22.25;;;11.48;;
52686;SDS011;38584;49.426;8.396;2022-12-07T09:45:50;21.48;;;10.80;;
52686;SDS011;38584;49.426;8.396;2022-12-07T09:48:19;24.13;;;10.77;;
52686;SDS011;38584;49.426;8.396;2022-12-07T09:50:47;20.33;;;10.27;;
52686;SDS011;38584;49.426;8.396;2022-12-07T09:53:32;21.38;;;10.43;;
52686;SDS011;38584;49.426;8.396;2022-12-07T09:55:58;20.67;;;10.65;;
52686;SDS011;38584;49.426;8.396;2022-12-07T09:58:25;19.48;;;10.25;;
52686;SDS011;38584;49.426;8.396;2022-12-07T10:01:05;20.98;;;10.23;;
52686;SDS011;38584;49.426;8.396;2022-12-07T10:03:37;23.77;;;11.23;;
52686;SDS011;38584;49.426;8.396;2022-12-07T10:06:04;19.60;;;9.23;;
52686;SDS011;38584;49.426;8.396;2022-12-07T10:08:30;22.40;;;10.20;;
52686;SDS011;38584;49.426;8.396;2022-12-07T10:10:56;23.02;;;11.20;;
52686;SDS011;38584;49.426;8.396;2022-12-07T10:13:32;18.23;;;9.90;;
52686;SDS011;38584;49.426;8.396;2022-12-07T10:16:03;17.75;;;9.23;;
52686;SDS011;38584;49.426;8.396;2022-12-07T10:18:30;18.58;;;8.73;;
52686;SDS011;38584;49.426;8.396;2022-12-07T10:21:12;18.42;;;9.45;;
52686;SDS011;38584;49.426;8.396;2022-12-07T10:24:03;15.30;;;7.68;;
52686;SDS011;38584;49.426;8.396;2022-12-07T10:26:30;14.55;;;6.60;;
52686;SDS011;38584;49.426;8.396;2022-12-07T10:29:17;18.17;;;7.53;;
52686;SDS011;38584;49.426;8.396;2022-12-07T10:31:46;14.85;;;7.20;;
52686;SDS011;38584;49.426;8.396;2022-12-07T10:34:22;18.27;;;7.13;;
52686;SDS011;38584;49.426;8.396;2022-12-07T10:36:50;15.25;;;6.72;;
52686;SDS011;38584;49.426;8.396;2022-12-07T10:39:17;18.55;;;7.18;;
52686;SDS011;38584;49.426;8.396;2022-12-07T10:41:54;15.05;;;6.93;;
52686;SDS011;38584;49.426;8.396;2022-12-07T10:44:27;13.73;;;7.20;;
52686;SDS011;38584;49.426;8.396;2022-12-07T11:10:53;15.75;;;6.70;;
52686;SDS011;38584;49.426;8.396;2022-12-07T11:19:00;13.80;;;5.80;;
52686;SDS011;38584;49.426;8.396;2022-12-07T11:21:56;16.42;;;6.35;;
52686;SDS011;38584;49.426;8.396;2022-12-07T11:32:42;18.58;;;6.55;;
52686;SDS011;38584;49.426;8.396;2022-12-07T11:37:51;15.73;;;7.28;;
52686;SDS011;38584;49.426;8.396;2022-12-07T11:40:24;14.95;;;7.13;;
52686;SDS011;38584;49.426;8.396;2022-12-07T11:42:59;16.35;;;7.40;;
52686;SDS011;38584;49.426;8.396;2022-12-07T11:45:27;14.98;;;7.00;;
52686;SDS011;38584;49.426;8.396;2022-12-07T11:47:55;16.40;;;6.43;;
52686;SDS011;38584;49.426;8.396;2022-12-07T11:50:32;13.38;;;5.82;;
52686;SDS011;38584;49.426;8.396;2022-12-07T11:53:17;14.68;;;5.53;;
52686;SDS011;38584;49.426;8.396;2022-12-07T11:55:52;15.18;;;5.50;;
52686;SDS011;38584;49.426;8.396;2022-12-07T12:09:12;11.82;;;4.40;;
52686;SDS011;38584;49.426;8.396;2022-12-07T12:11:48;12.02;;;4.30;;
52686;SDS011;38584;49.426;8.396;2022-12-07T12:14:44;12.85;;;4.80;;
52686;SDS011;38584;49.426;8.396;2022-12-07T12:25:59;10.48;;;4.05;;
52686;SDS011;38584;49.426;8.396;2022-12-07T12:31:17;12.02;;;4.10;;
52686;SDS011;38584;49.426;8.396;2022-12-07T12:34:02;12.98;;;4.80;;
52686;SDS011;38584;49.426;8.396;2022-12-07T13:21:41;12.02;;;3.25;;
52686;SDS011;38584;49.426;8.396;2022-12-07T13:24:07;10.80;;;3.40;;
52686;SDS011;38584;49.426;8.396;2022-12-07T13:26:36;12.20;;;4.10;;
52686;SDS011;38584;49.426;8.396;2022-12-07T13:29:09;11.05;;;4.20;;
52686;SDS011;38584;49.426;8.396;2022-12-07T13:34:33;13.68;;;4.63;;
52686;SDS011;38584;49.426;8.396;2022-12-07T13:37:01;13.02;;;4.65;;
52686;SDS011;38584;49.426;8.396;2022-12-07T13:39:27;14.75;;;4.95;;
52686;SDS011;38584;49.426;8.396;2022-12-07T13:41:57;12.63;;;4.95;;
52686;SDS011;38584;49.426;8.396;2022-12-07T13:44:24;13.60;;;4.95;;
52686;SDS011;38584;49.426;8.396;2022-12-07T13:47:07;16.83;;;5.60;;
52686;SDS011;38584;49.426;8.396;2022-12-07T13:49:55;13.00;;;5.50;;
52686;SDS011;38584;49.426;8.396;2022-12-07T13:52:22;15.02;;;5.82;;
52686;SDS011;38584;49.426;8.396;2022-12-07T13:54:56;13.52;;;5.60;;
52686;SDS011;38584;49.426;8.396;2022-12-07T13:57:26;13.40;;;5.00;;
52686;SDS011;38584;49.426;8.396;2022-12-07T13:59:52;14.18;;;4.30;;
52686;SDS011;38584;49.426;8.396;2022-12-07T14:04:48;11.30;;;3.70;;
52686;SDS011;38584;49.426;8.396;2022-12-07T14:07:19;10.00;;;3.10;;
52686;SDS011;38584;49.426;8.396;2022-12-07T14:09:55;13.43;;;3.42;;
52686;SDS011;38584;49.426;8.396;2022-12-07T14:12:25;10.50;;;3.30;;
52686;SDS011;38584;49.426;8.396;2022-12-07T14:14:51;10.93;;;3.53;;
52686;SDS011;38584;49.426;8.396;2022-12-07T14:17:18;10.30;;;3.38;;
52686;SDS011;38584;49.426;8.396;2022-12-07T14:19:57;12.23;;;3.63;;
52686;SDS011;38584;49.426;8.396;2022-12-07T14:24:59;12.32;;;3.60;;
52686;SDS011;38584;49.426;8.396;2022-12-07T14:27:39;10.85;;;4.05;;
52686;SDS011;38584;49.426;8.396;2022-12-07T14:30:05;10.80;;;3.63;;
52686;SDS011;38584;49.426;8.396;2022-12-07T14:32:31;12.27;;;3.78;;
52686;SDS011;38584;49.426;8.396;2022-12-07T14:35:02;12.52;;;3.88;;
52686;SDS011;38584;49.426;8.396;2022-12-07T14:37:33;10.68;;;3.42;;
52686;SDS011;38584;49.426;8.396;2022-12-07T14:39:58;11.77;;;3.67;;
52686;SDS011;38584;49.426;8.396;2022-12-07T14:42:24;11.48;;;3.28;;
52686;SDS011;38584;49.426;8.396;2022-12-07T14:44:53;11.15;;;3.42;;
52686;SDS011;38584;49.426;8.396;2022-12-07T14:47:18;12.40;;;3.38;;
52686;SDS011;38584;49.426;8.396;2022-12-07T14:49:43;10.32;;;3.35;;
52686;SDS011;38584;49.426;8.396;2022-12-07T14:52:23;10.30;;;3.50;;
52686;SDS011;38584;49.426;8.396;2022-12-07T14:54:52;11.00;;;3.58;;
52686;SDS011;38584;49.426;8.396;2022-12-07T14:57:17;12.25;;;4.00;;
52686;SDS011;38584;49.426;8.396;2022-12-07T14:59:43;16.20;;;3.85;;
52686;SDS011;38584;49.426;8.396;2022-12-07T15:02:09;10.45;;;3.45;;
52686;SDS011;38584;49.426;8.396;2022-12-07T15:04:36;11.98;;;4.05;;
52686;SDS011;38584;49.426;8.396;2022-12-07T15:07:02;14.48;;;3.58;;
52686;SDS011;38584;49.426;8.396;2022-12-07T15:09:29;13.45;;;3.58;;
52686;SDS011;38584;49.426;8.396;2022-12-07T15:11:54;11.38;;;3.92;;
52686;SDS011;38584;49.426;8.396;2022-12-07T15:14:20;12.82;;;3.97;;
52686;SDS011;38584;49.426;8.396;2022-12-07T15:16:45;14.27;;;3.85;;
52686;SDS011;38584;49.426;8.396;2022-12-07T15:19:14;12.25;;;4.20;;
52686;SDS011;38584;49.426;8.396;2022-12-07T15:21:44;12.82;;;4.35;;
52686;SDS011;38584;49.426;8.396;2022-12-07T15:24:10;14.95;;;4.10;;
52686;SDS011;38584;49.426;8.396;2022-12-07T15:26:36;10.98;;;4.20;;
52686;SDS011;38584;49.426;8.396;2022-12-07T15:29:02;12.10;;;3.90;;
52686;SDS011;38584;49.426;8.396;2022-12-07T15:31:28;11.40;;;4.07;;
52686;SDS011;38584;49.426;8.396;2022-12-07T15:33:53;12.63;;;4.65;;
52686;SDS011;38584;49.426;8.396;2022-12-07T15:36:22;11.27;;;3.90;;
52686;SDS011;38584;49.426;8.396;2022-12-07T15:38:49;11.63;;;4.22;;
52686;SDS011;38584;49.426;8.396;2022-12-07T15:41:14;10.68;;;3.95;;
52686;SDS011;38584;49.426;8.396;2022-12-07T15:43:40;13.18;;;4.72;;
52686;SDS011;38584;49.426;8.396;2022-12-07T15:46:28;12.98;;;5.03;;
52686;SDS011;38584;49.426;8.396;2022-12-07T15:48:55;15.43;;;5.30;;
52686;SDS011;38584;49.426;8.396;2022-12-07T15:51:20;13.57;;;5.03;;
52686;SDS011;38584;49.426;8.396;2022-12-07T15:53:46;13.93;;;5.43;;
52686;SDS011;38584;49.426;8.396;2022-12-07T15:56:11;14.10;;;5.00;;
52686;SDS011;38584;49.426;8.396;2022-12-07T15:58:37;14.38;;;4.80;;
52686;SDS011;38584;49.426;8.396;2022-12-07T16:01:09;12.85;;;4.75;;
52686;SDS011;38584;49.426;8.396;2022-12-07T16:03:38;16.13;;;4.32;;
52686;SDS011;38584;49.426;8.396;2022-12-07T16:06:04;9.88;;;3.90;;
52686;SDS011;38584;49.426;8.396;2022-12-07T16:08:29;12.07;;;4.40;;
52686;SDS011;38584;49.426;8.396;2022-12-07T16:10:55;11.68;;;4.80;;
52686;SDS011;38584;49.426;8.396;2022-12-07T16:13:20;12.43;;;5.05;;
52686;SDS011;38584;49.426;8.396;2022-12-07T16:15:45;13.50;;;5.00;;
52686;SDS011;38584;49.426;8.396;2022-12-07T16:18:14;13.68;;;4.78;;
52686;SDS011;38584;49.426;8.396;2022-12-07T16:20:40;14.52;;;5.93;;
52686;SDS011;38584;49.426;8.396;2022-12-07T16:23:05;13.05;;;5.35;;
52686;SDS011;38584;49.426;8.396;2022-12-07T16:25:32;13.93;;;5.68;;
52686;SDS011;38584;49.426;8.396;2022-12-07T16:27:57;12.90;;;5.95;;
52686;SDS011;38584;49.426;8.396;2022-12-07T16:30:23;14.07;;;6.25;;
52686;SDS011;38584;49.426;8.396;2022-12-07T16:32:48;15.60;;;6.32;;
52686;SDS011;38584;49.426;8.396;2022-12-07T16:35:13;16.35;;;7.43;;
52686;SDS011;38584;49.426;8.396;2022-12-07T16:37:41;17.50;;;7.47;;
52686;SDS011;38584;49.426;8.396;2022-12-07T16:40:06;18.25;;;8.38;;
52686;SDS011;38584;49.426;8.396;2022-12-07T16:42:33;20.40;;;8.30;;
52686;SDS011;38584;49.426;8.396;2022-12-07T16:44:59;26.75;;;8.98;;
52686;SDS011;38584;49.426;8.396;2022-12-07T16:47:25;23.25;;;8.85;;
52686;SDS011;38584;49.426;8.396;2022-12-07T16:49:50;17.27;;;8.30;;
52686;SDS011;38584;49.426;8.396;2022-12-07T16:52:17;18.55;;;7.88;;
52686;SDS011;38584;49.426;8.396;2022-12-07T16:54:42;17.23;;;7.93;;
52686;SDS011;38584;49.426;8.396;2022-12-07T16:57:07;16.00;;;7.50;;
52686;SDS011;38584;49.426;8.396;2022-12-07T16:59:33;21.33;;;7.28;;
52686;SDS011;38584;49.426;8.396;2022-12-07T17:01:58;15.82;;;6.97;;
52686;SDS011;38584;49.426;8.396;2022-12-07T17:04:24;17.98;;;8.07;;
52686;SDS011;38584;49.426;8.396;2022-12-07T17:06:49;18.38;;;8.00;;
52686;SDS011;38584;49.426;8.396;2022-12-07T17:09:15;16.92;;;7.38;;
52686;SDS011;38584;49.426;8.396;2022-12-07T17:11:42;15.15;;;7.15;;
52686;SDS011;38584;49.426;8.396;2022-12-07T17:14:08;19.15;;;7.82;;
52686;SDS011;38584;49.426;8.396;2022-12-07T17:16:52;18.23;;;8.07;;
52686;SDS011;38584;49.426;8.396;2022-12-07T17:19:17;17.90;;;7.90;;
52686;SDS011;38584;49.426;8.396;2022-12-07T17:21:43;19.80;;;9.05;;